sensor_id;sensor_type;location;lat;lon;timestamp;noise_LAeq;noise_LA_min;noise_LA_max;noise_LA01;noise_LA95
71030;Laerm;63723;51.436;5.976;2023-02-15T00:00:06;58.54;55.65;61.49;;
71030;Laerm;63723;51.436;5.976;2023-02-15T00:00:18;57.18;53.77;59.56;;
71030;Laerm;63723;51.436;5.976;2023-02-15T00:00:28;57.41;54.03;60.35;;
71030;Laerm;63723;51.436;5.976;2023-02-15T00:00:39;57.34;54.19;59.65;;
71030;Laerm;63723;51.436;5.976;2023-02-15T00:00:49;57.74;54.12;60.37;;
71030;Laerm;63723;51.436;5.976;2023-02-15T00:01:08;57.97;54.78;60.91;;
71030;Laerm;63723;51.436;5.976;2023-02-15T00:01:19;58.12;54.58;61.65;;
71030;Laerm;63723;51.436;5.976;2023-02-15T00:01:29;58.38;55.51;60.64;;
71030;Laerm;63723;51.436;5.976;2023-02-15T00:01:40;58.12;55.32;60.81;;
71030;Laerm;63723;51.436;5.976;2023-02-15T00:01:51;58.22;53.09;61.78;;
71030;Laerm;63723;51.436;5.976;2023-02-15T00:02:02;57.39;53.56;60.71;;
71030;Laerm;63723;51.436;5.976;2023-02-15T00:02:12;58.23;54.94;61.76;;
71030;Laerm;63723;51.436;5.976;2023-02-15T00:02:22;58.37;54.81;61.32;;
71030;Laerm;63723;51.436;5.976;2023-02-15T00:02:34;58.38;54.36;61.55;;
71030;Laerm;63723;51.436;5.976;2023-02-15T00:02:44;58.45;53.52;61.48;;
71030;Laerm;63723;51.436;5.976;2023-02-15T00:02:54;57.19;52.02;60.74;;
71030;Laerm;63723;51.436;5.976;2023-02-15T00:03:04;56.08;52.98;59.38;;
71030;Laerm;63723;51.436;5.976;2023-02-15T00:03:15;56.09;50.62;61.19;;
71030;Laerm;63723;51.436;5.976;2023-02-15T00:03:26;56.12;51.94;60.65;;
71030;Laerm;63723;51.436;5.976;2023-02-15T00:03:36;56.46;52.61;59.81;;
71030;Laerm;63723;51.436;5.976;2023-02-15T00:03:49;56.80;52.36;60.12;;
71030;Laerm;63723;51.436;5.976;2023-02-15T00:04:00;57.46;53.96;59.99;;
71030;Laerm;63723;51.436;5.976;2023-02-15T00:04:14;57.70;54.99;60.44;;
71030;Laerm;63723;51.436;5.976;2023-02-15T00:04:25;58.02;55.40;60.40;;
71030;Laerm;63723;51.436;5.976;2023-02-15T00:04:55;59.48;53.19;63.58;;
71030;Laerm;63723;51.436;5.976;2023-02-15T00:05:06;59.98;57.59;62.30;;
71030;Laerm;63723;51.436;5.976;2023-02-15T00:05:16;59.60;57.11;62.21;;
71030;Laerm;63723;51.436;5.976;2023-02-15T00:05:27;59.93;58.21;62.76;;
71030;Laerm;63723;51.436;5.976;2023-02-15T00:05:39;59.99;57.68;62.01;;
71030;Laerm;63723;51.436;5.976;2023-02-15T00:05:49;58.92;55.23;62.03;;
71030;Laerm;63723;51.436;5.976;2023-02-15T00:05:59;58.95;55.48;61.70;;
71030;Laerm;63723;51.436;5.976;2023-02-15T00:06:10;58.63;55.83;62.26;;
71030;Laerm;63723;51.436;5.976;2023-02-15T00:06:20;59.02;55.63;61.28;;
71030;Laerm;63723;51.436;5.976;2023-02-15T00:06:30;59.43;56.31;61.66;;
71030;Laerm;63723;51.436;5.976;2023-02-15T00:06:41;58.82;54.82;61.86;;
71030;Laerm;63723;51.436;5.976;2023-02-15T00:06:51;58.68;53.75;61.91;;
71030;Laerm;63723;51.436;5.976;2023-02-15T00:07:02;59.59;56.16;62.50;;
71030;Laerm;63723;51.436;5.976;2023-02-15T00:07:15;60.63;55.89;63.61;;
71030;Laerm;63723;51.436;5.976;2023-02-15T00:07:26;60.67;57.21;63.19;;
71030;Laerm;63723;51.436;5.976;2023-02-15T00:07:36;60.80;57.70;63.79;;
71030;Laerm;63723;51.436;5.976;2023-02-15T00:07:47;60.35;57.92;62.47;;
71030;Laerm;63723;51.436;5.976;2023-02-15T00:07:57;60.02;57.01;63.71;;
71030;Laerm;63723;51.436;5.976;2023-02-15T00:08:08;60.33;55.98;62.73;;
71030;Laerm;63723;51.436;5.976;2023-02-15T00:08:18;59.84;56.74;61.95;;
71030;Laerm;63723;51.436;5.976;2023-02-15T00:08:29;60.14;56.79;62.57;;
71030;Laerm;63723;51.436;5.976;2023-02-15T00:08:40;60.28;56.52;63.67;;
71030;Laerm;63723;51.436;5.976;2023-02-15T00:08:50;59.86;55.48;62.37;;
71030;Laerm;63723;51.436;5.976;2023-02-15T00:09:02;59.93;56.43;62.85;;
71030;Laerm;63723;51.436;5.976;2023-02-15T00:09:13;58.63;52.69;62.61;;
71030;Laerm;63723;51.436;5.976;2023-02-15T00:09:23;56.85;52.92;60.00;;
71030;Laerm;63723;51.436;5.976;2023-02-15T00:09:34;57.62;52.94;61.07;;
71030;Laerm;63723;51.436;5.976;2023-02-15T00:09:45;58.36;53.90;61.22;;
71030;Laerm;63723;51.436;5.976;2023-02-15T00:09:55;58.42;55.47;61.02;;
71030;Laerm;63723;51.436;5.976;2023-02-15T00:10:05;58.41;55.88;60.82;;
71030;Laerm;63723;51.436;5.976;2023-02-15T00:10:16;58.61;55.68;60.88;;
71030;Laerm;63723;51.436;5.976;2023-02-15T00:10:27;58.06;54.12;62.70;;
71030;Laerm;63723;51.436;5.976;2023-02-15T00:10:37;58.36;55.18;62.10;;
71030;Laerm;63723;51.436;5.976;2023-02-15T00:10:47;58.09;54.62;61.17;;
71030;Laerm;63723;51.436;5.976;2023-02-15T00:11:05;57.63;53.95;60.15;;
71030;Laerm;63723;51.436;5.976;2023-02-15T00:11:16;58.33;54.78;62.11;;
71030;Laerm;63723;51.436;5.976;2023-02-15T00:11:27;58.07;54.60;62.84;;
71030;Laerm;63723;51.436;5.976;2023-02-15T00:11:55;58.05;54.40;62.46;;
71030;Laerm;63723;51.436;5.976;2023-02-15T00:12:06;58.54;54.34;61.64;;
71030;Laerm;63723;51.436;5.976;2023-02-15T00:12:16;58.93;54.88;62.14;;
71030;Laerm;63723;51.436;5.976;2023-02-15T00:12:26;59.10;55.78;61.99;;
71030;Laerm;63723;51.436;5.976;2023-02-15T00:12:37;58.58;55.30;61.89;;
71030;Laerm;63723;51.436;5.976;2023-02-15T00:12:47;58.20;54.09;62.31;;
71030;Laerm;63723;51.436;5.976;2023-02-15T00:12:57;58.71;55.42;61.65;;
71030;Laerm;63723;51.436;5.976;2023-02-15T00:13:09;58.43;55.52;61.15;;
71030;Laerm;63723;51.436;5.976;2023-02-15T00:13:20;58.29;54.56;61.16;;
71030;Laerm;63723;51.436;5.976;2023-02-15T00:13:30;58.19;54.96;61.51;;
71030;Laerm;63723;51.436;5.976;2023-02-15T00:13:40;57.47;54.46;60.52;;
71030;Laerm;63723;51.436;5.976;2023-02-15T00:13:53;56.87;53.18;62.08;;
71030;Laerm;63723;51.436;5.976;2023-02-15T00:14:04;56.31;52.49;59.37;;
71030;Laerm;63723;51.436;5.976;2023-02-15T00:14:21;56.54;52.06;59.39;;
71030;Laerm;63723;51.436;5.976;2023-02-15T00:14:32;55.71;51.34;59.49;;
71030;Laerm;63723;51.436;5.976;2023-02-15T00:14:42;55.52;52.04;58.35;;
71030;Laerm;63723;51.436;5.976;2023-02-15T00:14:52;55.35;51.39;58.74;;
71030;Laerm;63723;51.436;5.976;2023-02-15T00:15:03;55.42;51.48;58.99;;
71030;Laerm;63723;51.436;5.976;2023-02-15T00:15:13;55.48;51.38;58.98;;
71030;Laerm;63723;51.436;5.976;2023-02-15T00:15:23;55.47;52.21;60.35;;
71030;Laerm;63723;51.436;5.976;2023-02-15T00:15:35;55.14;51.57;58.20;;
71030;Laerm;63723;51.436;5.976;2023-02-15T00:15:46;55.42;52.06;58.35;;
71030;Laerm;63723;51.436;5.976;2023-02-15T00:16:03;55.38;52.35;57.86;;
71030;Laerm;63723;51.436;5.976;2023-02-15T00:16:13;55.06;51.09;59.43;;
71030;Laerm;63723;51.436;5.976;2023-02-15T00:16:23;54.98;51.60;57.52;;
71030;Laerm;63723;51.436;5.976;2023-02-15T00:16:34;54.79;51.59;57.83;;
71030;Laerm;63723;51.436;5.976;2023-02-15T00:16:45;53.91;49.36;56.74;;
71030;Laerm;63723;51.436;5.976;2023-02-15T00:16:55;54.17;51.02;57.25;;
71030;Laerm;63723;51.436;5.976;2023-02-15T00:17:09;54.31;51.00;57.11;;
71030;Laerm;63723;51.436;5.976;2023-02-15T00:17:20;54.65;50.26;58.13;;
71030;Laerm;63723;51.436;5.976;2023-02-15T00:17:30;54.66;50.69;57.46;;
71030;Laerm;63723;51.436;5.976;2023-02-15T00:17:41;54.68;49.71;57.77;;
71030;Laerm;63723;51.436;5.976;2023-02-15T00:17:51;54.95;51.36;58.64;;
71030;Laerm;63723;51.436;5.976;2023-02-15T00:18:01;54.60;49.81;58.29;;
71030;Laerm;63723;51.436;5.976;2023-02-15T00:18:11;55.21;50.70;58.65;;
71030;Laerm;63723;51.436;5.976;2023-02-15T00:18:22;56.29;53.46;60.67;;
71030;Laerm;63723;51.436;5.976;2023-02-15T00:18:32;55.81;53.07;59.14;;
71030;Laerm;63723;51.436;5.976;2023-02-15T00:18:42;55.25;52.52;59.53;;
71030;Laerm;63723;51.436;5.976;2023-02-15T00:18:53;55.34;51.36;57.76;;
71030;Laerm;63723;51.436;5.976;2023-02-15T00:19:03;55.37;51.71;58.03;;
71030;Laerm;63723;51.436;5.976;2023-02-15T00:19:15;54.96;51.29;57.80;;
71030;Laerm;63723;51.436;5.976;2023-02-15T00:19:25;55.06;52.03;58.35;;
71030;Laerm;63723;51.436;5.976;2023-02-15T00:19:36;54.80;52.42;58.46;;
71030;Laerm;63723;51.436;5.976;2023-02-15T00:19:46;55.17;52.29;59.10;;
71030;Laerm;63723;51.436;5.976;2023-02-15T00:19:56;55.52;52.50;58.42;;
71030;Laerm;63723;51.436;5.976;2023-02-15T00:20:06;55.88;53.21;59.04;;
71030;Laerm;63723;51.436;5.976;2023-02-15T00:20:17;56.16;53.16;59.01;;
71030;Laerm;63723;51.436;5.976;2023-02-15T00:20:28;56.11;52.78;60.60;;
71030;Laerm;63723;51.436;5.976;2023-02-15T00:20:39;55.99;52.84;59.57;;
71030;Laerm;63723;51.436;5.976;2023-02-15T00:20:49;55.00;51.90;57.77;;
71030;Laerm;63723;51.436;5.976;2023-02-15T00:21:02;55.16;51.38;58.40;;
71030;Laerm;63723;51.436;5.976;2023-02-15T00:21:13;55.79;52.17;58.90;;
71030;Laerm;63723;51.436;5.976;2023-02-15T00:21:24;56.02;53.35;58.75;;
71030;Laerm;63723;51.436;5.976;2023-02-15T00:21:34;55.24;51.91;58.86;;
71030;Laerm;63723;51.436;5.976;2023-02-15T00:21:45;55.32;52.21;57.90;;
71030;Laerm;63723;51.436;5.976;2023-02-15T00:21:56;56.37;53.26;59.93;;
71030;Laerm;63723;51.436;5.976;2023-02-15T00:22:06;56.93;53.28;60.40;;
71030;Laerm;63723;51.436;5.976;2023-02-15T00:22:16;57.49;55.13;60.50;;
71030;Laerm;63723;51.436;5.976;2023-02-15T00:22:27;56.79;53.20;60.45;;
71030;Laerm;63723;51.436;5.976;2023-02-15T00:22:37;56.74;53.02;59.98;;
71030;Laerm;63723;51.436;5.976;2023-02-15T00:22:48;56.88;53.32;60.14;;
71030;Laerm;63723;51.436;5.976;2023-02-15T00:22:58;55.44;51.48;58.41;;
71030;Laerm;63723;51.436;5.976;2023-02-15T00:23:09;54.44;51.13;57.67;;
71030;Laerm;63723;51.436;5.976;2023-02-15T00:23:19;55.02;51.56;58.95;;
71030;Laerm;63723;51.436;5.976;2023-02-15T00:23:29;56.20;53.36;58.80;;
71030;Laerm;63723;51.436;5.976;2023-02-15T00:23:39;57.23;53.46;60.54;;
71030;Laerm;63723;51.436;5.976;2023-02-15T00:23:50;57.20;53.54;60.39;;
71030;Laerm;63723;51.436;5.976;2023-02-15T00:24:00;56.86;52.76;60.78;;
71030;Laerm;63723;51.436;5.976;2023-02-15T00:24:12;56.96;53.63;59.24;;
71030;Laerm;63723;51.436;5.976;2023-02-15T00:24:23;57.40;53.78;60.02;;
71030;Laerm;63723;51.436;5.976;2023-02-15T00:24:33;57.39;53.89;60.41;;
71030;Laerm;63723;51.436;5.976;2023-02-15T00:24:43;56.76;53.08;59.36;;
71030;Laerm;63723;51.436;5.976;2023-02-15T00:24:53;57.46;53.17;60.38;;
71030;Laerm;63723;51.436;5.976;2023-02-15T00:25:04;57.36;54.22;60.41;;
71030;Laerm;63723;51.436;5.976;2023-02-15T00:25:14;57.22;53.54;60.34;;
71030;Laerm;63723;51.436;5.976;2023-02-15T00:25:25;57.80;52.46;60.72;;
71030;Laerm;63723;51.436;5.976;2023-02-15T00:25:35;58.08;54.64;61.98;;
71030;Laerm;63723;51.436;5.976;2023-02-15T00:25:45;57.87;54.33;60.30;;
71030;Laerm;63723;51.436;5.976;2023-02-15T00:26:09;58.29;55.22;60.91;;
71030;Laerm;63723;51.436;5.976;2023-02-15T00:26:19;58.62;54.33;61.66;;
71030;Laerm;63723;51.436;5.976;2023-02-15T00:26:30;58.49;54.93;62.17;;
71030;Laerm;63723;51.436;5.976;2023-02-15T00:26:41;60.97;58.56;63.16;;
71030;Laerm;63723;51.436;5.976;2023-02-15T00:26:52;60.92;56.30;63.21;;
71030;Laerm;63723;51.436;5.976;2023-02-15T00:27:02;60.22;55.64;62.97;;
71030;Laerm;63723;51.436;5.976;2023-02-15T00:27:12;61.17;57.71;63.24;;
71030;Laerm;63723;51.436;5.976;2023-02-15T00:27:23;61.30;57.76;63.84;;
71030;Laerm;63723;51.436;5.976;2023-02-15T00:27:33;61.19;58.55;63.54;;
71030;Laerm;63723;51.436;5.976;2023-02-15T00:27:44;66.19;58.61;67.62;;
71030;Laerm;63723;51.436;5.976;2023-02-15T00:27:54;65.54;62.29;67.34;;
71030;Laerm;63723;51.436;5.976;2023-02-15T00:28:04;60.97;55.49;66.04;;
71030;Laerm;63723;51.436;5.976;2023-02-15T00:28:15;59.00;54.39;61.40;;
71030;Laerm;63723;51.436;5.976;2023-02-15T00:28:25;59.09;55.97;61.65;;
71030;Laerm;63723;51.436;5.976;2023-02-15T00:28:36;59.12;55.20;61.96;;
71030;Laerm;63723;51.436;5.976;2023-02-15T00:28:46;58.94;55.35;61.85;;
71030;Laerm;63723;51.436;5.976;2023-02-15T00:28:57;59.23;55.78;62.02;;
71030;Laerm;63723;51.436;5.976;2023-02-15T00:29:10;59.50;56.34;61.85;;
71030;Laerm;63723;51.436;5.976;2023-02-15T00:29:21;59.12;55.36;62.21;;
71030;Laerm;63723;51.436;5.976;2023-02-15T00:29:31;57.91;54.24;61.80;;
71030;Laerm;63723;51.436;5.976;2023-02-15T00:29:41;58.07;54.78;60.33;;
71030;Laerm;63723;51.436;5.976;2023-02-15T00:29:52;57.78;53.98;61.08;;
71030;Laerm;63723;51.436;5.976;2023-02-15T00:30:02;57.78;54.83;59.93;;
71030;Laerm;63723;51.436;5.976;2023-02-15T00:30:12;58.14;55.12;60.85;;
71030;Laerm;63723;51.436;5.976;2023-02-15T00:30:23;57.97;54.80;61.72;;
71030;Laerm;63723;51.436;5.976;2023-02-15T00:30:33;58.44;55.22;61.69;;
71030;Laerm;63723;51.436;5.976;2023-02-15T00:30:43;58.48;55.54;61.13;;
71030;Laerm;63723;51.436;5.976;2023-02-15T00:30:53;58.58;56.26;60.62;;
71030;Laerm;63723;51.436;5.976;2023-02-15T00:31:07;58.94;55.78;62.71;;
71030;Laerm;63723;51.436;5.976;2023-02-15T00:31:18;58.39;55.71;60.55;;
71030;Laerm;63723;51.436;5.976;2023-02-15T00:31:29;58.39;55.11;60.67;;
71030;Laerm;63723;51.436;5.976;2023-02-15T00:31:40;58.15;55.16;60.66;;
71030;Laerm;63723;51.436;5.976;2023-02-15T00:31:51;59.82;56.41;62.78;;
71030;Laerm;63723;51.436;5.976;2023-02-15T00:32:02;60.78;55.28;63.52;;
71030;Laerm;63723;51.436;5.976;2023-02-15T00:32:12;61.93;59.10;64.52;;
71030;Laerm;63723;51.436;5.976;2023-02-15T00:32:22;60.99;57.17;62.84;;
71030;Laerm;63723;51.436;5.976;2023-02-15T00:32:33;60.51;56.41;62.82;;
71030;Laerm;63723;51.436;5.976;2023-02-15T00:32:43;60.32;57.01;62.37;;
71030;Laerm;63723;51.436;5.976;2023-02-15T00:32:53;60.99;58.78;62.57;;
71030;Laerm;63723;51.436;5.976;2023-02-15T00:33:03;59.41;55.38;62.39;;
71030;Laerm;63723;51.436;5.976;2023-02-15T00:33:14;57.04;55.19;59.00;;
71030;Laerm;63723;51.436;5.976;2023-02-15T00:33:24;59.20;52.68;62.19;;
71030;Laerm;63723;51.436;5.976;2023-02-15T00:33:36;54.15;50.42;59.25;;
71030;Laerm;63723;51.436;5.976;2023-02-15T00:33:46;55.70;50.27;61.18;;
71030;Laerm;63723;51.436;5.976;2023-02-15T00:34:06;53.80;49.93;55.40;;
71030;Laerm;63723;51.436;5.976;2023-02-15T00:34:21;53.32;50.25;56.91;;
71030;Laerm;63723;51.436;5.976;2023-02-15T00:34:32;56.19;51.49;66.59;;
71030;Laerm;63723;51.436;5.976;2023-02-15T00:34:42;51.37;49.10;57.27;;
71030;Laerm;63723;51.436;5.976;2023-02-15T00:34:53;51.28;48.65;53.90;;
71030;Laerm;63723;51.436;5.976;2023-02-15T00:35:03;50.89;49.32;53.52;;
71030;Laerm;63723;51.436;5.976;2023-02-15T00:35:14;50.96;49.32;52.68;;
71030;Laerm;63723;51.436;5.976;2023-02-15T00:35:24;50.99;49.33;52.47;;
71030;Laerm;63723;51.436;5.976;2023-02-15T00:35:34;50.81;49.49;52.32;;
71030;Laerm;63723;51.436;5.976;2023-02-15T00:35:44;51.05;49.32;52.72;;
71030;Laerm;63723;51.436;5.976;2023-02-15T00:35:58;51.04;49.41;53.26;;
71030;Laerm;63723;51.436;5.976;2023-02-15T00:36:09;51.21;49.54;53.21;;
71030;Laerm;63723;51.436;5.976;2023-02-15T00:36:19;51.40;49.77;52.96;;
71030;Laerm;63723;51.436;5.976;2023-02-15T00:36:29;50.88;49.51;52.67;;
71030;Laerm;63723;51.436;5.976;2023-02-15T00:36:40;51.01;49.48;53.02;;
71030;Laerm;63723;51.436;5.976;2023-02-15T00:36:50;51.07;49.48;53.96;;
71030;Laerm;63723;51.436;5.976;2023-02-15T00:37:00;51.26;49.65;54.00;;
71030;Laerm;63723;51.436;5.976;2023-02-15T00:37:11;51.88;49.40;54.25;;
71030;Laerm;63723;51.436;5.976;2023-02-15T00:37:21;51.90;49.61;54.35;;
71030;Laerm;63723;51.436;5.976;2023-02-15T00:37:31;52.26;49.82;55.25;;
71030;Laerm;63723;51.436;5.976;2023-02-15T00:37:41;52.36;50.58;55.07;;
71030;Laerm;63723;51.436;5.976;2023-02-15T00:37:52;52.66;50.29;55.31;;
71030;Laerm;63723;51.436;5.976;2023-02-15T00:38:02;53.23;49.19;59.36;;
71030;Laerm;63723;51.436;5.976;2023-02-15T00:38:12;50.83;49.51;53.16;;
71030;Laerm;63723;51.436;5.976;2023-02-15T00:38:23;52.03;49.32;58.54;;
71030;Laerm;63723;51.436;5.976;2023-02-15T00:38:33;52.24;50.48;54.27;;
71030;Laerm;63723;51.436;5.976;2023-02-15T00:38:44;52.12;50.38;54.08;;
71030;Laerm;63723;51.436;5.976;2023-02-15T00:38:54;51.12;49.30;53.44;;
71030;Laerm;63723;51.436;5.976;2023-02-15T00:39:05;51.26;49.16;59.63;;
71030;Laerm;63723;51.436;5.976;2023-02-15T00:39:15;50.57;48.68;52.01;;
71030;Laerm;63723;51.436;5.976;2023-02-15T00:39:26;50.69;49.21;52.20;;
71030;Laerm;63723;51.436;5.976;2023-02-15T00:39:37;50.68;48.82;52.34;;
71030;Laerm;63723;51.436;5.976;2023-02-15T00:39:47;50.45;49.09;55.43;;
71030;Laerm;63723;51.436;5.976;2023-02-15T00:39:57;50.44;48.57;51.70;;
71030;Laerm;63723;51.436;5.976;2023-02-15T00:40:08;50.93;49.27;53.21;;
71030;Laerm;63723;51.436;5.976;2023-02-15T00:40:18;50.90;49.12;53.42;;
71030;Laerm;63723;51.436;5.976;2023-02-15T00:40:29;50.34;48.68;51.79;;
71030;Laerm;63723;51.436;5.976;2023-02-15T00:40:39;51.17;48.82;55.51;;
71030;Laerm;63723;51.436;5.976;2023-02-15T00:40:55;55.87;49.95;61.11;;
71030;Laerm;63723;51.436;5.976;2023-02-15T00:41:07;50.62;48.69;59.18;;
71030;Laerm;63723;51.436;5.976;2023-02-15T00:41:17;50.02;48.65;51.73;;
71030;Laerm;63723;51.436;5.976;2023-02-15T00:41:28;49.86;48.83;53.62;;
71030;Laerm;63723;51.436;5.976;2023-02-15T00:41:38;49.86;48.51;51.04;;
71030;Laerm;63723;51.436;5.976;2023-02-15T00:41:48;49.94;48.64;51.29;;
71030;Laerm;63723;51.436;5.976;2023-02-15T00:41:59;49.83;48.72;51.34;;
71030;Laerm;63723;51.436;5.976;2023-02-15T00:42:09;49.80;48.41;51.46;;
71030;Laerm;63723;51.436;5.976;2023-02-15T00:42:19;50.16;48.86;54.45;;
71030;Laerm;63723;51.436;5.976;2023-02-15T00:42:29;49.88;48.74;51.81;;
71030;Laerm;63723;51.436;5.976;2023-02-15T00:42:40;49.95;48.68;52.73;;
71030;Laerm;63723;51.436;5.976;2023-02-15T00:42:50;49.91;48.89;51.56;;
71030;Laerm;63723;51.436;5.976;2023-02-15T00:43:00;49.94;48.86;50.90;;
71030;Laerm;63723;51.436;5.976;2023-02-15T00:43:11;49.96;48.79;51.59;;
71030;Laerm;63723;51.436;5.976;2023-02-15T00:43:21;50.31;49.21;51.39;;
71030;Laerm;63723;51.436;5.976;2023-02-15T00:43:32;50.28;48.94;52.00;;
71030;Laerm;63723;51.436;5.976;2023-02-15T00:43:42;50.37;49.13;52.84;;
71030;Laerm;63723;51.436;5.976;2023-02-15T00:43:52;50.54;48.81;52.57;;
71030;Laerm;63723;51.436;5.976;2023-02-15T00:44:03;51.02;49.38;52.85;;
71030;Laerm;63723;51.436;5.976;2023-02-15T00:44:13;50.01;48.66;51.18;;
71030;Laerm;63723;51.436;5.976;2023-02-15T00:44:23;49.92;48.52;51.33;;
71030;Laerm;63723;51.436;5.976;2023-02-15T00:44:34;50.13;48.78;51.67;;
71030;Laerm;63723;51.436;5.976;2023-02-15T00:44:44;49.98;48.72;51.59;;
71030;Laerm;63723;51.436;5.976;2023-02-15T00:44:54;49.82;48.46;51.02;;
71030;Laerm;63723;51.436;5.976;2023-02-15T00:45:05;49.90;48.58;51.18;;
71030;Laerm;63723;51.436;5.976;2023-02-15T00:45:15;49.82;48.66;50.76;;
71030;Laerm;63723;51.436;5.976;2023-02-15T00:45:25;49.89;48.80;51.09;;
71030;Laerm;63723;51.436;5.976;2023-02-15T00:45:36;49.96;48.68;51.08;;
71030;Laerm;63723;51.436;5.976;2023-02-15T00:45:46;49.89;48.76;51.08;;
71030;Laerm;63723;51.436;5.976;2023-02-15T00:45:57;49.85;48.77;51.23;;
71030;Laerm;63723;51.436;5.976;2023-02-15T00:46:07;49.86;48.59;50.79;;
71030;Laerm;63723;51.436;5.976;2023-02-15T00:46:18;50.05;48.61;56.68;;
71030;Laerm;63723;51.436;5.976;2023-02-15T00:46:28;50.43;48.94;51.85;;
71030;Laerm;63723;51.436;5.976;2023-02-15T00:46:38;50.30;48.87;51.88;;
71030;Laerm;63723;51.436;5.976;2023-02-15T00:46:48;50.36;48.89;52.12;;
71030;Laerm;63723;51.436;5.976;2023-02-15T00:46:59;50.18;48.92;51.36;;
71030;Laerm;63723;51.436;5.976;2023-02-15T00:47:09;50.22;48.87;51.39;;
71030;Laerm;63723;51.436;5.976;2023-02-15T00:47:19;50.24;48.60;51.51;;
71030;Laerm;63723;51.436;5.976;2023-02-15T00:47:30;50.30;48.75;51.56;;
71030;Laerm;63723;51.436;5.976;2023-02-15T00:47:40;50.23;48.83;51.45;;
71030;Laerm;63723;51.436;5.976;2023-02-15T00:47:50;50.26;49.15;51.64;;
71030;Laerm;63723;51.436;5.976;2023-02-15T00:48:00;50.24;48.48;51.48;;
71030;Laerm;63723;51.436;5.976;2023-02-15T00:48:11;50.17;48.79;51.43;;
71030;Laerm;63723;51.436;5.976;2023-02-15T00:48:21;50.30;48.88;51.65;;
71030;Laerm;63723;51.436;5.976;2023-02-15T00:48:31;50.53;49.28;51.88;;
71030;Laerm;63723;51.436;5.976;2023-02-15T00:48:42;50.48;49.18;51.80;;
71030;Laerm;63723;51.436;5.976;2023-02-15T00:48:52;50.51;48.91;52.05;;
71030;Laerm;63723;51.436;5.976;2023-02-15T00:49:02;50.82;49.37;52.37;;
71030;Laerm;63723;51.436;5.976;2023-02-15T00:49:13;50.54;49.24;52.02;;
71030;Laerm;63723;51.436;5.976;2023-02-15T00:49:23;50.44;49.00;52.77;;
71030;Laerm;63723;51.436;5.976;2023-02-15T00:49:33;50.42;48.48;52.62;;
71030;Laerm;63723;51.436;5.976;2023-02-15T00:49:44;50.40;48.90;52.03;;
71030;Laerm;63723;51.436;5.976;2023-02-15T00:49:54;50.21;48.78;52.10;;
71030;Laerm;63723;51.436;5.976;2023-02-15T00:50:04;50.18;48.93;51.54;;
71030;Laerm;63723;51.436;5.976;2023-02-15T00:50:15;50.16;48.83;51.54;;
71030;Laerm;63723;51.436;5.976;2023-02-15T00:50:25;50.22;48.36;51.73;;
71030;Laerm;63723;51.436;5.976;2023-02-15T00:50:36;50.36;49.06;51.81;;
71030;Laerm;63723;51.436;5.976;2023-02-15T00:50:47;50.16;49.05;51.82;;
71030;Laerm;63723;51.436;5.976;2023-02-15T00:50:59;50.05;48.48;51.70;;
71030;Laerm;63723;51.436;5.976;2023-02-15T00:51:09;50.01;48.66;51.15;;
71030;Laerm;63723;51.436;5.976;2023-02-15T00:51:20;49.88;48.73;51.48;;
71030;Laerm;63723;51.436;5.976;2023-02-15T00:51:31;49.92;48.65;50.99;;
71030;Laerm;63723;51.436;5.976;2023-02-15T00:51:41;50.08;48.45;56.73;;
71030;Laerm;63723;51.436;5.976;2023-02-15T00:51:51;49.99;48.48;56.34;;
71030;Laerm;63723;51.436;5.976;2023-02-15T00:52:01;49.80;48.54;50.90;;
71030;Laerm;63723;51.436;5.976;2023-02-15T00:52:12;49.77;48.59;50.79;;
71030;Laerm;63723;51.436;5.976;2023-02-15T00:52:22;49.79;48.43;50.83;;
71030;Laerm;63723;51.436;5.976;2023-02-15T00:52:32;49.77;48.52;50.93;;
71030;Laerm;63723;51.436;5.976;2023-02-15T00:52:43;49.80;48.51;51.26;;
71030;Laerm;63723;51.436;5.976;2023-02-15T00:52:53;49.74;48.44;50.88;;
71030;Laerm;63723;51.436;5.976;2023-02-15T00:53:03;49.73;48.60;50.79;;
71030;Laerm;63723;51.436;5.976;2023-02-15T00:53:13;49.76;48.52;50.73;;
71030;Laerm;63723;51.436;5.976;2023-02-15T00:53:24;49.71;48.50;50.89;;
71030;Laerm;63723;51.436;5.976;2023-02-15T00:53:35;49.73;48.29;51.18;;
71030;Laerm;63723;51.436;5.976;2023-02-15T00:53:45;49.79;48.50;55.73;;
71030;Laerm;63723;51.436;5.976;2023-02-15T00:53:55;49.78;48.45;50.99;;
71030;Laerm;63723;51.436;5.976;2023-02-15T00:54:06;49.77;48.57;50.97;;
71030;Laerm;63723;51.436;5.976;2023-02-15T00:54:16;49.76;48.80;51.12;;
71030;Laerm;63723;51.436;5.976;2023-02-15T00:54:26;49.74;48.46;51.37;;
71030;Laerm;63723;51.436;5.976;2023-02-15T00:54:36;49.80;48.61;51.04;;
71030;Laerm;63723;51.436;5.976;2023-02-15T00:54:48;49.90;48.57;51.16;;
71030;Laerm;63723;51.436;5.976;2023-02-15T00:54:58;50.04;48.79;51.17;;
71030;Laerm;63723;51.436;5.976;2023-02-15T00:55:09;50.01;48.64;51.03;;
71030;Laerm;63723;51.436;5.976;2023-02-15T00:55:19;50.02;48.89;51.24;;
71030;Laerm;63723;51.436;5.976;2023-02-15T00:55:29;49.99;49.15;51.74;;
71030;Laerm;63723;51.436;5.976;2023-02-15T00:55:39;50.02;49.04;51.03;;
71030;Laerm;63723;51.436;5.976;2023-02-15T00:55:50;50.12;48.89;51.97;;
71030;Laerm;63723;51.436;5.976;2023-02-15T00:56:00;50.57;49.31;59.23;;
71030;Laerm;63723;51.436;5.976;2023-02-15T00:56:10;50.47;49.02;53.19;;
71030;Laerm;63723;51.436;5.976;2023-02-15T00:56:21;52.48;49.33;57.12;;
71030;Laerm;63723;51.436;5.976;2023-02-15T00:56:31;50.47;49.07;53.05;;
71030;Laerm;63723;51.436;5.976;2023-02-15T00:56:41;50.10;48.86;51.71;;
71030;Laerm;63723;51.436;5.976;2023-02-15T00:56:52;50.06;48.97;52.05;;
71030;Laerm;63723;51.436;5.976;2023-02-15T00:57:02;50.49;49.23;52.38;;
71030;Laerm;63723;51.436;5.976;2023-02-15T00:57:12;50.39;49.22;52.36;;
71030;Laerm;63723;51.436;5.976;2023-02-15T00:57:22;50.39;49.18;52.52;;
71030;Laerm;63723;51.436;5.976;2023-02-15T00:57:33;50.44;49.25;52.84;;
71030;Laerm;63723;51.436;5.976;2023-02-15T00:57:43;50.50;49.29;57.67;;
71030;Laerm;63723;51.436;5.976;2023-02-15T00:57:53;50.61;49.01;52.46;;
71030;Laerm;63723;51.436;5.976;2023-02-15T00:58:03;50.78;49.28;58.41;;
71030;Laerm;63723;51.436;5.976;2023-02-15T00:58:14;50.70;49.23;53.30;;
71030;Laerm;63723;51.436;5.976;2023-02-15T00:58:25;50.73;49.17;52.48;;
71030;Laerm;63723;51.436;5.976;2023-02-15T00:58:35;50.51;49.15;52.77;;
71030;Laerm;63723;51.436;5.976;2023-02-15T00:58:45;50.37;48.92;58.37;;
71030;Laerm;63723;51.436;5.976;2023-02-15T00:58:56;50.26;48.97;52.30;;
71030;Laerm;63723;51.436;5.976;2023-02-15T00:59:07;50.28;48.76;51.78;;
71030;Laerm;63723;51.436;5.976;2023-02-15T00:59:18;50.38;49.23;52.00;;
71030;Laerm;63723;51.436;5.976;2023-02-15T00:59:28;50.29;49.13;51.83;;
71030;Laerm;63723;51.436;5.976;2023-02-15T00:59:38;50.50;49.43;57.81;;
71030;Laerm;63723;51.436;5.976;2023-02-15T00:59:48;50.48;49.05;52.16;;
71030;Laerm;63723;51.436;5.976;2023-02-15T00:59:59;50.69;49.44;57.48;;
71030;Laerm;63723;51.436;5.976;2023-02-15T01:00:10;53.28;49.59;63.65;;
71030;Laerm;63723;51.436;5.976;2023-02-15T01:00:20;50.81;49.60;52.72;;
71030;Laerm;63723;51.436;5.976;2023-02-15T01:00:30;50.79;49.56;52.93;;
71030;Laerm;63723;51.436;5.976;2023-02-15T01:00:41;50.60;49.60;51.98;;